Terminal Aerodrome Forecast
Issued by NWS Charleston, WV

Current Version | Previous Version | Graphics & Text | Print | Product List | Glossary On
Versions: 1 2 3 4 5 6 7 8 9 10 11 12 13 14 15 16 17 18 19 20 21 22 23 24 25 26 27 28 29 30
000
FTUS41 KRLX 181120
TAFPKB
TAF
KPKB 181120Z 1812/1912 19011KT 6SM -SHRA OVC035
     FM181500 20011G18KT P6SM -SHRA OVC040
     FM182100 20015G25KT P6SM OVC035
     FM182300 21016G25KT 5SM -SHRA OVC035
     FM190100 22016G23KT 3SM -SHRA OVC020
     FM190500 27016G27KT 5SM -SHRA OVC015
     FM190800 28015G26KT 6SM BR OVC020=

USA.gov is the U.S. government's official web portal to all federal, state and local government web resources and services.